sensor_id;sensor_type;location;lat;lon;timestamp;P1;durP1;ratioP1;P2;durP2;ratioP2
25479;SDS011;13393;49.378;8.686;2023-04-24T00:02:00;1.95;;;0.80;;
25479;SDS011;13393;49.378;8.686;2023-04-24T00:04:26;2.17;;;1.00;;
25479;SDS011;13393;49.378;8.686;2023-04-24T00:06:53;1.63;;;0.80;;
25479;SDS011;13393;49.378;8.686;2023-04-24T00:09:22;3.50;;;1.02;;
25479;SDS011;13393;49.378;8.686;2023-04-24T00:11:48;1.02;;;0.88;;
25479;SDS011;13393;49.378;8.686;2023-04-24T00:14:16;2.53;;;0.90;;
25479;SDS011;13393;49.378;8.686;2023-04-24T00:16:42;1.67;;;0.85;;
25479;SDS011;13393;49.378;8.686;2023-04-24T00:19:08;2.67;;;1.08;;
25479;SDS011;13393;49.378;8.686;2023-04-24T00:21:36;3.63;;;1.02;;
25479;SDS011;13393;49.378;8.686;2023-04-24T00:24:03;1.75;;;1.08;;
25479;SDS011;13393;49.378;8.686;2023-04-24T00:26:29;1.48;;;1.00;;
25479;SDS011;13393;49.378;8.686;2023-04-24T00:28:56;3.65;;;1.13;;
25479;SDS011;13393;49.378;8.686;2023-04-24T00:31:23;2.08;;;1.10;;
25479;SDS011;13393;49.378;8.686;2023-04-24T00:33:49;1.60;;;1.10;;
25479;SDS011;13393;49.378;8.686;2023-04-24T00:36:16;1.30;;;1.00;;
25479;SDS011;13393;49.378;8.686;2023-04-24T00:38:44;1.33;;;0.80;;
25479;SDS011;13393;49.378;8.686;2023-04-24T00:41:10;2.53;;;1.20;;
25479;SDS011;13393;49.378;8.686;2023-04-24T00:43:37;1.75;;;0.80;;
25479;SDS011;13393;49.378;8.686;2023-04-24T00:46:04;1.75;;;1.10;;
25479;SDS011;13393;49.378;8.686;2023-04-24T00:48:32;1.35;;;1.02;;
25479;SDS011;13393;49.378;8.686;2023-04-24T00:50:58;2.38;;;1.10;;
25479;SDS011;13393;49.378;8.686;2023-04-24T00:53:25;1.23;;;0.93;;
25479;SDS011;13393;49.378;8.686;2023-04-24T00:55:51;1.73;;;1.00;;
25479;SDS011;13393;49.378;8.686;2023-04-24T00:58:17;2.65;;;1.02;;
25479;SDS011;13393;49.378;8.686;2023-04-24T01:00:44;2.42;;;0.90;;
25479;SDS011;13393;49.378;8.686;2023-04-24T01:03:11;1.15;;;0.90;;
25479;SDS011;13393;49.378;8.686;2023-04-24T01:05:39;1.30;;;0.88;;
25479;SDS011;13393;49.378;8.686;2023-04-24T01:08:05;2.63;;;1.40;;
25479;SDS011;13393;49.378;8.686;2023-04-24T01:10:32;2.45;;;1.10;;
25479;SDS011;13393;49.378;8.686;2023-04-24T01:12:59;1.75;;;1.08;;
25479;SDS011;13393;49.378;8.686;2023-04-24T01:15:25;1.13;;;0.82;;
25479;SDS011;13393;49.378;8.686;2023-04-24T01:17:52;3.05;;;1.63;;
25479;SDS011;13393;49.378;8.686;2023-04-24T01:20:18;4.97;;;1.30;;
25479;SDS011;13393;49.378;8.686;2023-04-24T01:22:47;2.53;;;0.70;;
25479;SDS011;13393;49.378;8.686;2023-04-24T01:25:13;5.60;;;1.30;;
25479;SDS011;13393;49.378;8.686;2023-04-24T01:27:39;2.20;;;1.05;;
25479;SDS011;13393;49.378;8.686;2023-04-24T01:30:06;1.30;;;0.90;;
25479;SDS011;13393;49.378;8.686;2023-04-24T01:32:33;1.77;;;1.05;;
25479;SDS011;13393;49.378;8.686;2023-04-24T01:35:00;1.58;;;0.80;;
25479;SDS011;13393;49.378;8.686;2023-04-24T01:37:26;1.75;;;0.90;;
25479;SDS011;13393;49.378;8.686;2023-04-24T01:39:54;1.88;;;1.02;;
25479;SDS011;13393;49.378;8.686;2023-04-24T01:42:21;2.70;;;1.10;;
25479;SDS011;13393;49.378;8.686;2023-04-24T01:44:47;2.42;;;1.17;;
25479;SDS011;13393;49.378;8.686;2023-04-24T01:47:13;1.73;;;1.20;;
25479;SDS011;13393;49.378;8.686;2023-04-24T01:49:40;2.90;;;1.13;;
25479;SDS011;13393;49.378;8.686;2023-04-24T01:52:06;3.60;;;1.00;;
25479;SDS011;13393;49.378;8.686;2023-04-24T01:54:32;2.08;;;1.02;;
25479;SDS011;13393;49.378;8.686;2023-04-24T01:57:00;1.52;;;1.00;;
25479;SDS011;13393;49.378;8.686;2023-04-24T01:59:27;1.40;;;0.80;;
25479;SDS011;13393;49.378;8.686;2023-04-24T02:01:53;3.63;;;1.02;;
25479;SDS011;13393;49.378;8.686;2023-04-24T02:04:20;1.92;;;0.95;;
25479;SDS011;13393;49.378;8.686;2023-04-24T02:06:46;1.95;;;1.00;;
25479;SDS011;13393;49.378;8.686;2023-04-24T02:09:12;2.85;;;1.48;;
25479;SDS011;13393;49.378;8.686;2023-04-24T02:11:39;2.55;;;0.98;;
25479;SDS011;13393;49.378;8.686;2023-04-24T02:14:06;1.42;;;1.20;;
25479;SDS011;13393;49.378;8.686;2023-04-24T02:16:32;2.15;;;1.00;;
25479;SDS011;13393;49.378;8.686;2023-04-24T02:19:00;2.47;;;1.00;;
25479;SDS011;13393;49.378;8.686;2023-04-24T02:21:27;2.78;;;1.05;;
25479;SDS011;13393;49.378;8.686;2023-04-24T02:23:53;2.53;;;1.02;;
25479;SDS011;13393;49.378;8.686;2023-04-24T02:26:20;3.10;;;0.80;;
25479;SDS011;13393;49.378;8.686;2023-04-24T02:28:46;1.88;;;1.08;;
25479;SDS011;13393;49.378;8.686;2023-04-24T02:31:14;2.15;;;0.98;;
25479;SDS011;13393;49.378;8.686;2023-04-24T02:33:40;1.95;;;1.05;;
25479;SDS011;13393;49.378;8.686;2023-04-24T02:36:07;0.85;;;0.85;;
25479;SDS011;13393;49.378;8.686;2023-04-24T02:38:33;1.80;;;0.93;;
25479;SDS011;13393;49.378;8.686;2023-04-24T02:40:59;1.90;;;0.88;;
25479;SDS011;13393;49.378;8.686;2023-04-24T02:43:27;1.30;;;0.88;;
25479;SDS011;13393;49.378;8.686;2023-04-24T02:45:53;2.50;;;0.90;;
25479;SDS011;13393;49.378;8.686;2023-04-24T02:48:21;1.38;;;1.00;;
25479;SDS011;13393;49.378;8.686;2023-04-24T02:50:47;1.95;;;0.98;;
25479;SDS011;13393;49.378;8.686;2023-04-24T02:53:13;2.17;;;1.10;;
25479;SDS011;13393;49.378;8.686;2023-04-24T02:55:40;0.80;;;0.80;;
25479;SDS011;13393;49.378;8.686;2023-04-24T02:58:06;1.50;;;0.93;;
25479;SDS011;13393;49.378;8.686;2023-04-24T03:00:32;2.05;;;1.00;;
25479;SDS011;13393;49.378;8.686;2023-04-24T03:02:59;3.00;;;1.00;;
25479;SDS011;13393;49.378;8.686;2023-04-24T03:05:27;1.05;;;0.80;;
25479;SDS011;13393;49.378;8.686;2023-04-24T03:07:53;2.08;;;0.95;;
25479;SDS011;13393;49.378;8.686;2023-04-24T03:10:19;3.45;;;0.93;;
25479;SDS011;13393;49.378;8.686;2023-04-24T03:12:47;1.58;;;0.80;;
25479;SDS011;13393;49.378;8.686;2023-04-24T03:15:13;3.15;;;1.38;;
25479;SDS011;13393;49.378;8.686;2023-04-24T03:17:40;3.47;;;1.50;;
25479;SDS011;13393;49.378;8.686;2023-04-24T03:20:07;2.20;;;1.20;;
25479;SDS011;13393;49.378;8.686;2023-04-24T03:22:35;2.20;;;1.17;;
25479;SDS011;13393;49.378;8.686;2023-04-24T03:25:01;1.58;;;1.30;;
25479;SDS011;13393;49.378;8.686;2023-04-24T03:27:28;2.47;;;1.48;;
25479;SDS011;13393;49.378;8.686;2023-04-24T03:29:55;2.65;;;1.25;;
25479;SDS011;13393;49.378;8.686;2023-04-24T03:32:22;3.33;;;1.45;;
25479;SDS011;13393;49.378;8.686;2023-04-24T03:34:48;2.45;;;1.33;;
25479;SDS011;13393;49.378;8.686;2023-04-24T03:37:15;2.15;;;1.42;;
25479;SDS011;13393;49.378;8.686;2023-04-24T03:39:42;3.85;;;1.70;;
25479;SDS011;13393;49.378;8.686;2023-04-24T03:42:09;2.10;;;1.73;;
25479;SDS011;13393;49.378;8.686;2023-04-24T03:44:35;4.78;;;1.90;;
25479;SDS011;13393;49.378;8.686;2023-04-24T03:47:02;2.03;;;1.60;;
25479;SDS011;13393;49.378;8.686;2023-04-24T03:49:28;1.70;;;1.60;;
25479;SDS011;13393;49.378;8.686;2023-04-24T03:51:54;3.85;;;1.75;;
25479;SDS011;13393;49.378;8.686;2023-04-24T03:54:21;3.42;;;1.70;;
25479;SDS011;13393;49.378;8.686;2023-04-24T03:56:48;1.80;;;1.55;;
25479;SDS011;13393;49.378;8.686;2023-04-24T03:59:15;3.72;;;2.00;;
25479;SDS011;13393;49.378;8.686;2023-04-24T04:01:41;1.75;;;1.60;;
25479;SDS011;13393;49.378;8.686;2023-04-24T04:04:07;5.82;;;2.03;;
25479;SDS011;13393;49.378;8.686;2023-04-24T04:06:33;2.15;;;1.70;;
25479;SDS011;13393;49.378;8.686;2023-04-24T04:09:01;3.50;;;1.90;;
25479;SDS011;13393;49.378;8.686;2023-04-24T04:11:28;1.92;;;1.70;;
25479;SDS011;13393;49.378;8.686;2023-04-24T04:13:55;1.90;;;1.75;;
25479;SDS011;13393;49.378;8.686;2023-04-24T04:16:22;2.45;;;1.67;;
25479;SDS011;13393;49.378;8.686;2023-04-24T04:18:49;1.83;;;1.73;;
25479;SDS011;13393;49.378;8.686;2023-04-24T04:21:15;3.67;;;2.03;;
25479;SDS011;13393;49.378;8.686;2023-04-24T04:23:42;6.75;;;1.98;;
25479;SDS011;13393;49.378;8.686;2023-04-24T04:26:08;3.33;;;1.80;;
25479;SDS011;13393;49.378;8.686;2023-04-24T04:28:34;3.90;;;1.95;;
25479;SDS011;13393;49.378;8.686;2023-04-24T04:31:04;2.95;;;2.05;;
25479;SDS011;13393;49.378;8.686;2023-04-24T04:33:30;7.00;;;2.22;;
25479;SDS011;13393;49.378;8.686;2023-04-24T04:35:57;2.70;;;1.98;;
25479;SDS011;13393;49.378;8.686;2023-04-24T04:38:23;3.30;;;2.15;;
25479;SDS011;13393;49.378;8.686;2023-04-24T04:40:51;5.63;;;2.13;;
25479;SDS011;13393;49.378;8.686;2023-04-24T04:43:17;2.22;;;2.00;;
25479;SDS011;13393;49.378;8.686;2023-04-24T04:45:44;2.95;;;1.80;;
25479;SDS011;13393;49.378;8.686;2023-04-24T04:48:11;2.25;;;2.05;;
25479;SDS011;13393;49.378;8.686;2023-04-24T04:50:38;2.75;;;2.17;;
25479;SDS011;13393;49.378;8.686;2023-04-24T04:53:05;2.80;;;2.30;;
25479;SDS011;13393;49.378;8.686;2023-04-24T04:55:31;2.92;;;2.45;;
25479;SDS011;13393;49.378;8.686;2023-04-24T04:57:58;4.90;;;2.45;;
25479;SDS011;13393;49.378;8.686;2023-04-24T05:00:25;3.95;;;2.58;;
25479;SDS011;13393;49.378;8.686;2023-04-24T05:02:52;3.03;;;2.30;;
25479;SDS011;13393;49.378;8.686;2023-04-24T05:05:20;5.00;;;2.40;;
25479;SDS011;13393;49.378;8.686;2023-04-24T05:07:46;6.97;;;2.72;;
25479;SDS011;13393;49.378;8.686;2023-04-24T05:10:12;4.63;;;2.50;;
25479;SDS011;13393;49.378;8.686;2023-04-24T05:12:38;3.17;;;2.42;;
25479;SDS011;13393;49.378;8.686;2023-04-24T05:15:05;4.00;;;2.30;;
25479;SDS011;13393;49.378;8.686;2023-04-24T05:17:32;3.58;;;2.70;;
25479;SDS011;13393;49.378;8.686;2023-04-24T05:19:58;2.70;;;2.50;;
25479;SDS011;13393;49.378;8.686;2023-04-24T05:22:25;3.22;;;2.92;;
25479;SDS011;13393;49.378;8.686;2023-04-24T05:24:52;4.05;;;2.83;;
25479;SDS011;13393;49.378;8.686;2023-04-24T05:27:18;7.03;;;3.20;;
25479;SDS011;13393;49.378;8.686;2023-04-24T05:29:45;2.78;;;2.40;;
25479;SDS011;13393;49.378;8.686;2023-04-24T05:32:11;3.15;;;2.85;;
25479;SDS011;13393;49.378;8.686;2023-04-24T05:34:38;3.30;;;3.00;;
25479;SDS011;13393;49.378;8.686;2023-04-24T05:37:04;3.13;;;2.80;;
25479;SDS011;13393;49.378;8.686;2023-04-24T05:39:34;6.25;;;3.05;;
25479;SDS011;13393;49.378;8.686;2023-04-24T05:42:01;6.13;;;3.70;;
25479;SDS011;13393;49.378;8.686;2023-04-24T05:44:28;4.72;;;3.10;;
25479;SDS011;13393;49.378;8.686;2023-04-24T05:46:54;5.25;;;3.47;;
25479;SDS011;13393;49.378;8.686;2023-04-24T05:49:21;3.42;;;3.13;;
25479;SDS011;13393;49.378;8.686;2023-04-24T05:51:48;7.35;;;3.10;;
25479;SDS011;13393;49.378;8.686;2023-04-24T05:54:14;3.72;;;3.33;;
25479;SDS011;13393;49.378;8.686;2023-04-24T05:56:42;3.80;;;3.47;;
25479;SDS011;13393;49.378;8.686;2023-04-24T05:59:08;6.15;;;3.85;;
25479;SDS011;13393;49.378;8.686;2023-04-24T06:01:36;5.43;;;3.53;;
25479;SDS011;13393;49.378;8.686;2023-04-24T06:04:03;7.07;;;3.67;;
25479;SDS011;13393;49.378;8.686;2023-04-24T06:06:29;5.60;;;3.28;;
25479;SDS011;13393;49.378;8.686;2023-04-24T06:08:57;3.50;;;3.20;;
25479;SDS011;13393;49.378;8.686;2023-04-24T06:11:24;5.07;;;3.80;;
25479;SDS011;13393;49.378;8.686;2023-04-24T06:13:51;3.47;;;3.13;;
25479;SDS011;13393;49.378;8.686;2023-04-24T06:16:18;5.38;;;3.80;;
25479;SDS011;13393;49.378;8.686;2023-04-24T06:18:44;3.53;;;3.20;;
25479;SDS011;13393;49.378;8.686;2023-04-24T06:21:12;4.05;;;3.30;;
25479;SDS011;13393;49.378;8.686;2023-04-24T06:23:38;4.18;;;3.67;;
25479;SDS011;13393;49.378;8.686;2023-04-24T06:26:04;3.58;;;3.20;;
25479;SDS011;13393;49.378;8.686;2023-04-24T06:28:31;4.15;;;3.67;;
25479;SDS011;13393;49.378;8.686;2023-04-24T06:30:58;3.92;;;3.40;;
25479;SDS011;13393;49.378;8.686;2023-04-24T06:33:24;4.28;;;3.22;;
25479;SDS011;13393;49.378;8.686;2023-04-24T06:35:51;3.75;;;3.38;;
25479;SDS011;13393;49.378;8.686;2023-04-24T06:38:17;3.05;;;2.83;;
25479;SDS011;13393;49.378;8.686;2023-04-24T06:40:43;5.63;;;2.88;;
25479;SDS011;13393;49.378;8.686;2023-04-24T06:43:10;7.60;;;3.38;;
25479;SDS011;13393;49.378;8.686;2023-04-24T06:45:37;3.47;;;3.00;;
25479;SDS011;13393;49.378;8.686;2023-04-24T06:48:06;3.90;;;2.47;;
25479;SDS011;13393;49.378;8.686;2023-04-24T06:50:32;4.10;;;2.50;;
25479;SDS011;13393;49.378;8.686;2023-04-24T06:52:58;4.00;;;2.28;;
25479;SDS011;13393;49.378;8.686;2023-04-24T06:55:24;3.10;;;2.80;;
25479;SDS011;13393;49.378;8.686;2023-04-24T06:57:51;4.28;;;2.90;;
25479;SDS011;13393;49.378;8.686;2023-04-24T07:00:17;8.73;;;2.50;;
25479;SDS011;13393;49.378;8.686;2023-04-24T07:02:43;5.50;;;3.10;;
25479;SDS011;13393;49.378;8.686;2023-04-24T07:05:11;3.17;;;2.58;;
25479;SDS011;13393;49.378;8.686;2023-04-24T07:07:37;2.50;;;2.30;;
25479;SDS011;13393;49.378;8.686;2023-04-24T07:10:05;6.15;;;2.70;;
25479;SDS011;13393;49.378;8.686;2023-04-24T07:12:33;2.97;;;2.53;;
25479;SDS011;13393;49.378;8.686;2023-04-24T07:15:00;4.60;;;2.85;;
25479;SDS011;13393;49.378;8.686;2023-04-24T07:17:27;3.90;;;2.40;;
25479;SDS011;13393;49.378;8.686;2023-04-24T07:19:53;2.42;;;1.85;;
25479;SDS011;13393;49.378;8.686;2023-04-24T07:22:21;2.75;;;1.90;;
25479;SDS011;13393;49.378;8.686;2023-04-24T07:24:47;2.15;;;1.98;;
25479;SDS011;13393;49.378;8.686;2023-04-24T07:27:14;1.85;;;1.75;;
25479;SDS011;13393;49.378;8.686;2023-04-24T07:29:40;3.30;;;1.70;;
25479;SDS011;13393;49.378;8.686;2023-04-24T07:32:06;2.80;;;1.70;;
25479;SDS011;13393;49.378;8.686;2023-04-24T07:34:34;3.33;;;1.65;;
25479;SDS011;13393;49.378;8.686;2023-04-24T07:37:00;3.22;;;1.67;;
25479;SDS011;13393;49.378;8.686;2023-04-24T07:39:28;2.20;;;1.65;;
25479;SDS011;13393;49.378;8.686;2023-04-24T07:41:54;1.83;;;1.70;;
25479;SDS011;13393;49.378;8.686;2023-04-24T07:44:21;1.73;;;1.63;;
25479;SDS011;13393;49.378;8.686;2023-04-24T07:46:47;2.95;;;1.83;;
25479;SDS011;13393;49.378;8.686;2023-04-24T07:49:13;3.05;;;2.42;;
25479;SDS011;13393;49.378;8.686;2023-04-24T07:51:40;4.18;;;2.50;;
25479;SDS011;13393;49.378;8.686;2023-04-24T07:54:06;3.13;;;2.15;;
25479;SDS011;13393;49.378;8.686;2023-04-24T07:56:34;3.42;;;2.50;;
25479;SDS011;13393;49.378;8.686;2023-04-24T07:59:03;3.50;;;1.88;;
25479;SDS011;13393;49.378;8.686;2023-04-24T08:01:30;4.05;;;2.00;;
25479;SDS011;13393;49.378;8.686;2023-04-24T08:03:56;2.70;;;1.92;;
25479;SDS011;13393;49.378;8.686;2023-04-24T08:06:22;2.92;;;1.80;;
25479;SDS011;13393;49.378;8.686;2023-04-24T08:08:49;2.60;;;2.28;;
25479;SDS011;13393;49.378;8.686;2023-04-24T08:11:16;3.33;;;2.40;;
25479;SDS011;13393;49.378;8.686;2023-04-24T08:13:44;3.65;;;2.67;;
25479;SDS011;13393;49.378;8.686;2023-04-24T08:16:10;2.53;;;2.30;;
25479;SDS011;13393;49.378;8.686;2023-04-24T08:18:36;4.80;;;2.35;;
25479;SDS011;13393;49.378;8.686;2023-04-24T08:21:03;5.85;;;2.75;;
25479;SDS011;13393;49.378;8.686;2023-04-24T08:23:29;5.72;;;2.25;;
25479;SDS011;13393;49.378;8.686;2023-04-24T08:25:56;2.20;;;1.92;;
25479;SDS011;13393;49.378;8.686;2023-04-24T08:28:23;3.00;;;2.30;;
25479;SDS011;13393;49.378;8.686;2023-04-24T08:30:51;2.30;;;1.83;;
25479;SDS011;13393;49.378;8.686;2023-04-24T08:33:19;5.28;;;2.38;;
25479;SDS011;13393;49.378;8.686;2023-04-24T08:35:46;6.45;;;2.78;;
25479;SDS011;13393;49.378;8.686;2023-04-24T08:38:12;4.93;;;2.10;;
25479;SDS011;13393;49.378;8.686;2023-04-24T08:40:38;6.10;;;2.17;;
25479;SDS011;13393;49.378;8.686;2023-04-24T08:43:05;4.55;;;2.33;;
25479;SDS011;13393;49.378;8.686;2023-04-24T08:45:32;2.95;;;1.60;;
25479;SDS011;13393;49.378;8.686;2023-04-24T08:48:00;3.40;;;1.60;;
25479;SDS011;13393;49.378;8.686;2023-04-24T08:50:26;1.70;;;1.60;;
25479;SDS011;13393;49.378;8.686;2023-04-24T08:52:53;2.00;;;1.50;;
25479;SDS011;13393;49.378;8.686;2023-04-24T08:55:19;3.08;;;1.60;;
25479;SDS011;13393;49.378;8.686;2023-04-24T08:57:49;4.38;;;1.80;;
25479;SDS011;13393;49.378;8.686;2023-04-24T09:00:16;2.58;;;1.60;;
25479;SDS011;13393;49.378;8.686;2023-04-24T09:02:42;2.70;;;1.45;;
25479;SDS011;13393;49.378;8.686;2023-04-24T09:05:11;2.85;;;1.55;;
25479;SDS011;13393;49.378;8.686;2023-04-24T09:07:38;5.15;;;2.28;;
25479;SDS011;13393;49.378;8.686;2023-04-24T09:10:05;3.75;;;1.60;;
25479;SDS011;13393;49.378;8.686;2023-04-24T09:12:33;5.60;;;2.03;;
25479;SDS011;13393;49.378;8.686;2023-04-24T09:15:00;2.95;;;1.88;;
25479;SDS011;13393;49.378;8.686;2023-04-24T09:17:26;2.22;;;1.83;;
25479;SDS011;13393;49.378;8.686;2023-04-24T09:19:53;2.17;;;1.80;;
25479;SDS011;13393;49.378;8.686;2023-04-24T09:22:21;3.65;;;2.28;;
25479;SDS011;13393;49.378;8.686;2023-04-24T09:24:47;3.20;;;1.92;;
25479;SDS011;13393;49.378;8.686;2023-04-24T09:27:13;2.90;;;1.98;;
25479;SDS011;13393;49.378;8.686;2023-04-24T09:29:53;3.00;;;2.10;;
25479;SDS011;13393;49.378;8.686;2023-04-24T09:32:19;3.72;;;1.85;;
25479;SDS011;13393;49.378;8.686;2023-04-24T09:34:47;3.38;;;2.00;;
25479;SDS011;13393;49.378;8.686;2023-04-24T09:37:15;2.50;;;1.95;;
25479;SDS011;13393;49.378;8.686;2023-04-24T09:39:45;2.92;;;2.20;;
25479;SDS011;13393;49.378;8.686;2023-04-24T09:42:12;1.92;;;1.75;;
25479;SDS011;13393;49.378;8.686;2023-04-24T09:44:38;2.00;;;1.70;;
25479;SDS011;13393;49.378;8.686;2023-04-24T09:47:04;3.97;;;1.95;;
25479;SDS011;13393;49.378;8.686;2023-04-24T09:49:34;3.13;;;1.70;;
25479;SDS011;13393;49.378;8.686;2023-04-24T09:52:04;3.35;;;1.83;;
25479;SDS011;13393;49.378;8.686;2023-04-24T09:54:31;4.03;;;1.90;;
25479;SDS011;13393;49.378;8.686;2023-04-24T09:56:59;1.63;;;1.52;;
25479;SDS011;13393;49.378;8.686;2023-04-24T09:59:26;2.50;;;1.98;;
25479;SDS011;13393;49.378;8.686;2023-04-24T10:01:52;2.47;;;2.20;;
25479;SDS011;13393;49.378;8.686;2023-04-24T10:04:19;7.75;;;2.83;;
25479;SDS011;13393;49.378;8.686;2023-04-24T10:06:45;3.13;;;2.67;;
25479;SDS011;13393;49.378;8.686;2023-04-24T10:09:12;5.03;;;2.65;;
25479;SDS011;13393;49.378;8.686;2023-04-24T10:11:40;3.78;;;2.60;;
25479;SDS011;13393;49.378;8.686;2023-04-24T10:14:08;4.82;;;2.90;;
25479;SDS011;13393;49.378;8.686;2023-04-24T10:16:35;3.50;;;2.20;;
25479;SDS011;13393;49.378;8.686;2023-04-24T10:19:02;3.53;;;2.28;;
25479;SDS011;13393;49.378;8.686;2023-04-24T10:21:29;3.28;;;2.65;;
25479;SDS011;13393;49.378;8.686;2023-04-24T10:23:56;3.95;;;2.33;;
25479;SDS011;13393;49.378;8.686;2023-04-24T10:26:22;3.90;;;2.40;;
25479;SDS011;13393;49.378;8.686;2023-04-24T10:28:49;4.03;;;2.45;;
25479;SDS011;13393;49.378;8.686;2023-04-24T10:31:17;4.60;;;2.65;;
25479;SDS011;13393;49.378;8.686;2023-04-24T10:33:43;2.85;;;2.15;;
25479;SDS011;13393;49.378;8.686;2023-04-24T10:36:11;4.60;;;2.38;;
25479;SDS011;13393;49.378;8.686;2023-04-24T10:38:39;3.25;;;2.20;;
25479;SDS011;13393;49.378;8.686;2023-04-24T10:41:07;2.38;;;2.10;;
25479;SDS011;13393;49.378;8.686;2023-04-24T10:43:34;2.80;;;1.90;;
25479;SDS011;13393;49.378;8.686;2023-04-24T10:46:01;1.65;;;1.55;;
25479;SDS011;13393;49.378;8.686;2023-04-24T10:48:29;1.65;;;1.40;;
25479;SDS011;13393;49.378;8.686;2023-04-24T10:50:56;4.65;;;1.60;;
25479;SDS011;13393;49.378;8.686;2023-04-24T10:53:22;2.33;;;1.65;;
25479;SDS011;13393;49.378;8.686;2023-04-24T10:55:52;4.00;;;1.90;;
25479;SDS011;13393;49.378;8.686;2023-04-24T10:58:23;6.82;;;2.63;;
25479;SDS011;13393;49.378;8.686;2023-04-24T11:00:55;3.00;;;2.20;;
25479;SDS011;13393;49.378;8.686;2023-04-24T11:03:23;2.80;;;2.10;;
25479;SDS011;13393;49.378;8.686;2023-04-24T11:05:51;3.15;;;2.67;;
25479;SDS011;13393;49.378;8.686;2023-04-24T11:08:22;6.22;;;2.38;;
25479;SDS011;13393;49.378;8.686;2023-04-24T11:10:54;6.30;;;2.50;;
25479;SDS011;13393;49.378;8.686;2023-04-24T11:13:21;3.38;;;2.65;;
25479;SDS011;13393;49.378;8.686;2023-04-24T11:15:53;5.22;;;2.65;;
25479;SDS011;13393;49.378;8.686;2023-04-24T11:18:37;4.85;;;2.80;;
25479;SDS011;13393;49.378;8.686;2023-04-24T11:21:11;5.28;;;3.00;;
25479;SDS011;13393;49.378;8.686;2023-04-24T11:23:37;5.13;;;2.70;;
25479;SDS011;13393;49.378;8.686;2023-04-24T11:26:10;3.33;;;2.55;;
25479;SDS011;13393;49.378;8.686;2023-04-24T11:28:36;9.48;;;4.03;;
25479;SDS011;13393;49.378;8.686;2023-04-24T11:33:44;4.22;;;2.55;;
25479;SDS011;13393;49.378;8.686;2023-04-24T11:36:12;2.42;;;2.20;;
25479;SDS011;13393;49.378;8.686;2023-04-24T11:38:38;8.85;;;2.38;;
25479;SDS011;13393;49.378;8.686;2023-04-24T11:41:05;4.75;;;2.80;;
25479;SDS011;13393;49.378;8.686;2023-04-24T11:43:32;6.72;;;2.75;;
25479;SDS011;13393;49.378;8.686;2023-04-24T11:45:59;4.82;;;3.03;;
25479;SDS011;13393;49.378;8.686;2023-04-24T11:48:26;5.38;;;3.42;;
25479;SDS011;13393;49.378;8.686;2023-04-24T11:50:52;5.82;;;3.35;;
25479;SDS011;13393;49.378;8.686;2023-04-24T11:53:22;6.03;;;3.38;;
25479;SDS011;13393;49.378;8.686;2023-04-24T11:55:49;3.95;;;3.53;;
25479;SDS011;13393;49.378;8.686;2023-04-24T11:58:15;3.40;;;3.00;;
25479;SDS011;13393;49.378;8.686;2023-04-24T12:00:53;4.13;;;3.42;;
25479;SDS011;13393;49.378;8.686;2023-04-24T12:03:21;6.68;;;3.97;;
25479;SDS011;13393;49.378;8.686;2023-04-24T12:05:47;6.80;;;3.40;;
25479;SDS011;13393;49.378;8.686;2023-04-24T12:08:27;3.15;;;2.53;;
25479;SDS011;13393;49.378;8.686;2023-04-24T12:10:54;4.05;;;3.00;;
25479;SDS011;13393;49.378;8.686;2023-04-24T12:13:20;4.18;;;2.97;;
25479;SDS011;13393;49.378;8.686;2023-04-24T12:15:47;6.03;;;3.78;;
25479;SDS011;13393;49.378;8.686;2023-04-24T12:18:13;4.57;;;3.22;;
25479;SDS011;13393;49.378;8.686;2023-04-24T12:20:41;5.93;;;3.45;;
25479;SDS011;13393;49.378;8.686;2023-04-24T12:23:08;5.20;;;3.05;;
25479;SDS011;13393;49.378;8.686;2023-04-24T12:25:36;5.82;;;3.10;;
25479;SDS011;13393;49.378;8.686;2023-04-24T12:28:08;4.45;;;3.15;;
25479;SDS011;13393;49.378;8.686;2023-04-24T12:30:38;4.53;;;3.38;;
25479;SDS011;13393;49.378;8.686;2023-04-24T12:33:05;3.67;;;2.83;;
25479;SDS011;13393;49.378;8.686;2023-04-24T12:35:32;4.00;;;2.40;;
25479;SDS011;13393;49.378;8.686;2023-04-24T12:38:05;4.70;;;2.75;;
25479;SDS011;13393;49.378;8.686;2023-04-24T12:40:31;4.25;;;2.40;;
25479;SDS011;13393;49.378;8.686;2023-04-24T12:42:59;4.40;;;2.80;;
25479;SDS011;13393;49.378;8.686;2023-04-24T12:45:25;4.75;;;2.78;;
25479;SDS011;13393;49.378;8.686;2023-04-24T12:47:53;4.82;;;2.70;;
25479;SDS011;13393;49.378;8.686;2023-04-24T12:50:19;4.13;;;2.90;;
25479;SDS011;13393;49.378;8.686;2023-04-24T12:52:45;3.67;;;2.90;;
25479;SDS011;13393;49.378;8.686;2023-04-24T12:55:12;10.23;;;2.90;;
25479;SDS011;13393;49.378;8.686;2023-04-24T12:57:39;3.33;;;2.67;;
25479;SDS011;13393;49.378;8.686;2023-04-24T13:00:08;4.15;;;2.83;;
25479;SDS011;13393;49.378;8.686;2023-04-24T13:02:35;4.57;;;2.92;;
25479;SDS011;13393;49.378;8.686;2023-04-24T13:05:01;5.65;;;2.53;;
25479;SDS011;13393;49.378;8.686;2023-04-24T13:07:27;3.65;;;2.45;;
25479;SDS011;13393;49.378;8.686;2023-04-24T13:09:54;5.57;;;2.70;;
25479;SDS011;13393;49.378;8.686;2023-04-24T13:12:21;2.88;;;2.30;;
25479;SDS011;13393;49.378;8.686;2023-04-24T13:14:48;2.97;;;2.60;;
25479;SDS011;13393;49.378;8.686;2023-04-24T13:17:16;3.13;;;2.40;;
25479;SDS011;13393;49.378;8.686;2023-04-24T13:19:43;4.50;;;2.85;;
25479;SDS011;13393;49.378;8.686;2023-04-24T13:22:10;4.47;;;2.75;;
25479;SDS011;13393;49.378;8.686;2023-04-24T13:24:36;5.78;;;2.90;;
25479;SDS011;13393;49.378;8.686;2023-04-24T13:27:04;3.65;;;2.72;;
25479;SDS011;13393;49.378;8.686;2023-04-24T13:29:31;3.30;;;2.53;;
25479;SDS011;13393;49.378;8.686;2023-04-24T13:31:57;4.00;;;2.50;;
25479;SDS011;13393;49.378;8.686;2023-04-24T13:34:25;2.60;;;2.20;;
25479;SDS011;13393;49.378;8.686;2023-04-24T13:36:52;3.15;;;2.38;;
25479;SDS011;13393;49.378;8.686;2023-04-24T13:39:19;4.90;;;2.70;;
25479;SDS011;13393;49.378;8.686;2023-04-24T13:41:45;3.25;;;2.33;;
25479;SDS011;13393;49.378;8.686;2023-04-24T13:44:13;6.18;;;2.78;;
25479;SDS011;13393;49.378;8.686;2023-04-24T13:46:39;4.10;;;2.63;;
25479;SDS011;13393;49.378;8.686;2023-04-24T13:49:06;5.45;;;2.83;;
25479;SDS011;13393;49.378;8.686;2023-04-24T13:51:33;8.05;;;2.78;;
25479;SDS011;13393;49.378;8.686;2023-04-24T13:53:59;3.40;;;2.30;;
25479;SDS011;13393;49.378;8.686;2023-04-24T13:56:26;2.45;;;2.17;;
25479;SDS011;13393;49.378;8.686;2023-04-24T13:58:52;3.55;;;2.20;;
25479;SDS011;13393;49.378;8.686;2023-04-24T14:01:19;3.28;;;2.47;;
25479;SDS011;13393;49.378;8.686;2023-04-24T14:03:49;3.25;;;2.95;;
25479;SDS011;13393;49.378;8.686;2023-04-24T14:06:15;10.52;;;5.30;;
25479;SDS011;13393;49.378;8.686;2023-04-24T14:08:43;4.68;;;3.70;;
25479;SDS011;13393;49.378;8.686;2023-04-24T14:11:09;4.15;;;2.60;;
25479;SDS011;13393;49.378;8.686;2023-04-24T14:13:36;5.07;;;3.35;;
25479;SDS011;13393;49.378;8.686;2023-04-24T14:16:02;5.15;;;3.92;;
25479;SDS011;13393;49.378;8.686;2023-04-24T14:18:29;4.90;;;3.72;;
25479;SDS011;13393;49.378;8.686;2023-04-24T14:20:55;5.20;;;3.00;;
25479;SDS011;13393;49.378;8.686;2023-04-24T14:23:21;4.88;;;2.75;;
25479;SDS011;13393;49.378;8.686;2023-04-24T14:25:49;5.90;;;3.08;;
25479;SDS011;13393;49.378;8.686;2023-04-24T14:28:19;6.55;;;3.75;;
25479;SDS011;13393;49.378;8.686;2023-04-24T14:30:45;5.05;;;2.92;;
25479;SDS011;13393;49.378;8.686;2023-04-24T14:33:12;4.88;;;2.60;;
25479;SDS011;13393;49.378;8.686;2023-04-24T14:35:38;5.10;;;2.38;;
25479;SDS011;13393;49.378;8.686;2023-04-24T14:38:05;2.95;;;2.42;;
25479;SDS011;13393;49.378;8.686;2023-04-24T14:40:31;3.78;;;2.30;;
25479;SDS011;13393;49.378;8.686;2023-04-24T14:42:59;4.55;;;2.80;;
25479;SDS011;13393;49.378;8.686;2023-04-24T14:45:25;4.07;;;2.80;;
25479;SDS011;13393;49.378;8.686;2023-04-24T14:47:52;6.78;;;2.72;;
25479;SDS011;13393;49.378;8.686;2023-04-24T14:50:18;5.00;;;3.00;;